createdAt,value
2023-05-22T00:01:59.340Z,100.00
2023-05-22T00:07:06.606Z,100.00
2023-05-22T00:12:10.803Z,100.00
2023-05-22T00:17:15.291Z,100.00
2023-05-22T00:22:21.245Z,100.00
2023-05-22T00:27:25.375Z,100.00
2023-05-22T00:32:29.921Z,100.00
2023-05-22T00:37:35.388Z,100.00
2023-05-22T00:42:40.592Z,100.00
2023-05-22T00:47:45.110Z,100.00
2023-05-22T00:52:50.648Z,100.00
2023-05-22T00:57:55.001Z,100.00
2023-05-22T01:02:59.727Z,100.00
2023-05-22T01:08:07.865Z,100.00
2023-05-22T01:13:20.159Z,100.00
2023-05-22T01:18:32.238Z,100.00
2023-05-22T01:24:13.904Z,100.00
2023-05-22T01:29:36.511Z,100.00
2023-05-22T01:34:43.921Z,100.00
2023-05-22T01:39:48.212Z,100.00
2023-05-22T01:44:52.732Z,100.00
2023-05-22T01:49:58.764Z,100.00
2023-05-22T01:55:08.929Z,100.00
2023-05-22T02:00:16.305Z,100.00
2023-05-22T02:05:24.330Z,100.00
2023-05-22T02:10:29.417Z,100.00
2023-05-22T02:15:34.334Z,100.00
2023-05-22T02:20:40.080Z,100.00
2023-05-22T02:25:44.087Z,100.00
2023-05-22T02:30:48.188Z,100.00
2023-05-22T02:35:54.827Z,100.00
2023-05-22T02:40:58.734Z,100.00
2023-05-22T02:46:02.862Z,100.00
2023-05-22T02:51:09.267Z,100.00
2023-05-22T02:56:13.225Z,100.00
2023-05-22T03:01:17.510Z,100.00
2023-05-22T03:06:23.259Z,100.00
2023-05-22T03:11:27.196Z,100.00
2023-05-22T03:16:32.906Z,100.00
2023-05-22T03:21:38.838Z,100.00
2023-05-22T03:26:43.901Z,100.00
2023-05-22T03:31:55.236Z,100.00
2023-05-22T03:37:00.757Z,100.00
2023-05-22T03:42:05.552Z,100.00
2023-05-22T03:47:09.620Z,100.00
2023-05-22T03:52:15.493Z,100.00
2023-05-22T03:57:20.813Z,100.00
2023-05-22T04:02:26.472Z,100.00
2023-05-22T04:07:32.716Z,100.00
2023-05-22T04:12:36.880Z,100.00
2023-05-22T04:17:41.731Z,100.00
2023-05-22T04:22:48.911Z,100.00
2023-05-22T04:27:52.932Z,100.00
2023-05-22T04:32:57.853Z,99.87
2023-05-22T04:38:03.697Z,99.90
2023-05-22T04:43:10.222Z,96.44
2023-05-22T04:48:15.389Z,99.76
2023-05-22T04:53:21.277Z,96.03
2023-05-22T04:58:27.527Z,94.30
2023-05-22T05:03:33.964Z,94.05
2023-05-22T05:08:39.697Z,93.21
2023-05-22T05:13:43.777Z,93.02
2023-05-22T05:18:47.737Z,94.12
2023-05-22T05:23:53.803Z,88.58
2023-05-22T05:28:58.323Z,89.26
2023-05-22T05:34:10.473Z,87.84
2023-05-22T05:39:30.537Z,87.08
2023-05-22T05:44:37.675Z,88.08
2023-05-22T05:49:43.596Z,86.12
2023-05-22T05:54:49.354Z,86.13
2023-05-22T05:59:57.372Z,85.46
2023-05-22T06:05:19.277Z,80.50
2023-05-22T06:10:27.567Z,80.22
2023-05-22T06:15:36.311Z,79.23
2023-05-22T06:20:40.444Z,76.85
2023-05-22T06:25:46.865Z,75.41
2023-05-22T06:30:51.625Z,69.29
2023-05-22T06:35:58.584Z,71.01
2023-05-22T06:41:04.198Z,70.47
2023-05-22T06:46:08.622Z,66.88
2023-05-22T06:51:32.977Z,62.46
2023-05-22T06:56:48.134Z,62.82
2023-05-22T07:01:53.916Z,61.85
2023-05-22T07:07:09.422Z,59.43
2023-05-22T07:12:14.860Z,59.36
2023-05-22T07:17:18.932Z,54.03
2023-05-22T07:22:22.903Z,56.46
2023-05-22T07:27:28.523Z,55.21
2023-05-22T07:32:32.527Z,56.00
2023-05-22T07:37:39.410Z,53.82
2023-05-22T07:42:45.135Z,52.33
2023-05-22T07:47:50.570Z,51.62
2023-05-22T07:52:54.796Z,50.60
2023-05-22T07:58:04.178Z,49.57
2023-05-22T08:03:13.720Z,51.38
2023-05-22T08:08:17.906Z,50.99
2023-05-22T08:13:23.526Z,48.25
2023-05-22T08:18:29.240Z,48.96
2023-05-22T08:23:36.273Z,46.94
2023-05-22T08:28:44.326Z,49.41
2023-05-22T08:33:48.817Z,46.92
2023-05-22T08:38:52.921Z,47.22
2023-05-22T08:43:58.473Z,46.83
2023-05-22T08:49:03.676Z,48.12
2023-05-22T08:54:08.325Z,49.14
2023-05-22T08:59:14.127Z,51.03
2023-05-22T09:04:18.189Z,48.11
2023-05-22T09:09:22.423Z,47.95
2023-05-22T09:14:27.900Z,48.19
2023-05-22T09:19:31.886Z,48.74
2023-05-22T09:24:39.626Z,48.71
2023-05-22T09:29:52.523Z,48.91
2023-05-22T09:35:02.901Z,48.12
2023-05-22T09:40:08.204Z,48.11
2023-05-22T09:45:14.069Z,46.80
2023-05-22T09:50:18.587Z,45.35
2023-05-22T09:55:23.943Z,45.54
2023-05-22T10:00:30.130Z,46.01
2023-05-22T10:05:34.312Z,47.10
2023-05-22T10:10:39.918Z,45.80
2023-05-22T10:15:46.184Z,46.63
2023-05-22T10:20:52.007Z,46.77
2023-05-22T10:25:56.975Z,47.39
2023-05-22T10:31:06.018Z,45.16
2023-05-22T10:36:46.004Z,44.80
2023-05-22T10:41:51.770Z,45.69
2023-05-22T10:46:57.035Z,46.18
2023-05-22T10:52:01.355Z,45.15
2023-05-22T10:57:11.377Z,44.61
2023-05-22T11:02:29.898Z,44.94
2023-05-22T11:07:41.430Z,44.50
2023-05-22T11:12:45.773Z,44.94
2023-05-22T11:17:51.896Z,43.52
2023-05-22T11:22:58.159Z,44.87
2023-05-22T11:28:04.529Z,43.43
2023-05-22T11:33:10.120Z,46.76
2023-05-22T11:38:15.892Z,45.57
2023-05-22T11:43:29.890Z,45.98
2023-05-22T11:48:36.430Z,43.14
2023-05-22T11:53:42.298Z,44.15
2023-05-22T11:58:46.451Z,43.38
2023-05-22T12:03:52.121Z,42.77
2023-05-22T12:08:56.205Z,43.68
2023-05-22T12:14:03.901Z,40.96
2023-05-22T12:19:09.839Z,43.71
2023-05-22T12:24:13.780Z,41.14
2023-05-22T12:29:17.925Z,41.87
2023-05-22T12:34:23.911Z,39.69
2023-05-22T12:39:29.556Z,41.19
2023-05-22T12:44:33.722Z,40.68
2023-05-22T12:49:38.939Z,41.09
2023-05-22T12:54:42.914Z,40.07
2023-05-22T12:59:46.767Z,41.29
2023-05-22T13:04:52.487Z,39.95
2023-05-22T13:09:56.751Z,40.64
2023-05-22T13:15:01.008Z,40.52
2023-05-22T13:20:08.180Z,40.54
2023-05-22T13:25:13.408Z,40.25
2023-05-22T13:30:17.349Z,39.27
2023-05-22T13:35:22.711Z,38.93
2023-05-22T13:40:26.739Z,39.46
2023-05-22T13:45:31.214Z,40.06
2023-05-22T13:50:36.596Z,40.73
2023-05-22T13:55:40.855Z,40.73
2023-05-22T14:00:45.408Z,40.26
2023-05-22T14:05:50.971Z,39.27
2023-05-22T14:10:55.263Z,39.28
2023-05-22T14:15:59.379Z,39.17
2023-05-22T14:21:05.122Z,37.55
2023-05-22T14:26:09.051Z,37.30
2023-05-22T14:31:13.208Z,36.05
2023-05-22T14:36:20.350Z,35.24
2023-05-22T14:41:26.358Z,36.26
2023-05-22T14:48:26.456Z,36.68
2023-05-22T14:53:31.046Z,36.73
2023-05-22T14:58:35.545Z,36.58
2023-05-22T15:03:41.555Z,36.21
2023-05-22T15:08:46.211Z,37.54
2023-05-22T15:13:50.917Z,36.72
2023-05-22T15:18:56.538Z,38.83
2023-05-22T15:24:01.362Z,37.92
2023-05-22T15:29:06.112Z,38.33
2023-05-22T15:34:11.951Z,38.06
2023-05-22T15:39:16.782Z,38.79
2023-05-22T15:44:21.048Z,39.40
2023-05-22T15:49:28.586Z,40.34
2023-05-22T15:54:34.430Z,40.63
2023-05-22T15:59:38.747Z,42.05
2023-05-22T16:04:44.306Z,42.46
2023-05-22T16:09:50.268Z,43.20
2023-05-22T16:15:00.211Z,43.76
2023-05-22T16:20:09.019Z,44.96
2023-05-22T16:25:13.839Z,45.58
2023-05-22T16:30:18.657Z,46.97
2023-05-22T16:35:24.381Z,46.47
2023-05-22T16:40:28.752Z,47.28
2023-05-22T16:45:33.179Z,47.52
2023-05-22T16:50:39.063Z,50.83
2023-05-22T16:55:43.665Z,49.34
2023-05-22T17:00:47.894Z,50.87
2023-05-22T17:05:53.553Z,52.39
2023-05-22T17:10:58.134Z,53.21
2023-05-22T17:16:02.183Z,53.86
2023-05-22T17:21:09.154Z,56.65
2023-05-22T17:26:14.640Z,56.30
2023-05-22T17:31:18.895Z,56.38
2023-05-22T17:36:24.599Z,58.69
2023-05-22T17:41:28.862Z,57.57
2023-05-22T17:46:33.217Z,58.32
2023-05-22T17:51:38.907Z,57.48
2023-05-22T17:56:43.276Z,58.03
2023-05-22T18:01:48.022Z,58.59
2023-05-22T18:06:53.734Z,60.07
2023-05-22T18:12:00.836Z,62.05
2023-05-22T18:17:05.439Z,65.84
2023-05-22T18:22:10.997Z,68.13
2023-05-22T18:27:15.372Z,70.06
2023-05-22T18:32:19.580Z,72.42
2023-05-22T18:37:26.148Z,76.04
2023-05-22T18:42:30.392Z,78.32
2023-05-22T18:47:34.633Z,79.02
2023-05-22T18:52:40.935Z,81.67
2023-05-22T18:57:45.092Z,85.32
2023-05-22T19:02:49.294Z,87.52
2023-05-22T19:07:57.858Z,87.78
2023-05-22T19:13:02.287Z,87.83
2023-05-22T19:18:06.946Z,93.53
2023-05-22T19:23:13.765Z,94.32
2023-05-22T19:28:18.089Z,96.60
2023-05-22T19:33:25.419Z,94.86
2023-05-22T19:38:31.161Z,100.00
2023-05-22T19:43:35.590Z,100.00
2023-05-22T19:48:40.026Z,100.00
2023-05-22T19:53:45.637Z,100.00
2023-05-22T19:58:49.965Z,100.00
2023-05-22T20:03:56.425Z,100.00
2023-05-22T20:09:05.882Z,100.00
2023-05-22T20:14:11.884Z,100.00
2023-05-22T20:19:17.700Z,100.00
2023-05-22T20:24:25.124Z,100.00
2023-05-22T20:29:29.589Z,100.00
2023-05-22T20:34:34.033Z,100.00
2023-05-22T20:39:41.713Z,100.00
2023-05-22T20:44:46.333Z,100.00
2023-05-22T20:49:50.949Z,100.00
2023-05-22T20:54:56.967Z,100.00
2023-05-22T21:00:01.390Z,100.00
2023-05-22T21:05:07.886Z,100.00
2023-05-22T21:10:13.995Z,100.00
2023-05-22T21:15:19.013Z,100.00
2023-05-22T21:20:23.627Z,100.00
2023-05-22T21:25:29.168Z,100.00
2023-05-22T21:30:33.735Z,100.00
2023-05-22T21:35:38.400Z,100.00
2023-05-22T21:40:43.977Z,100.00
2023-05-22T21:45:48.427Z,100.00
2023-05-22T21:50:52.786Z,100.00
2023-05-22T21:55:58.559Z,100.00
2023-05-22T22:01:03.286Z,100.00
2023-05-22T22:06:08.350Z,100.00
2023-05-22T22:11:13.713Z,100.00
2023-05-22T22:16:18.522Z,100.00
2023-05-22T22:21:22.813Z,100.00
2023-05-22T22:26:30.973Z,100.00
2023-05-22T22:31:36.132Z,100.00
2023-05-22T22:36:41.300Z,100.00
2023-05-22T22:41:46.849Z,100.00
2023-05-22T22:46:51.740Z,100.00
2023-05-22T22:51:56.591Z,100.00
2023-05-22T22:57:02.547Z,100.00
2023-05-22T23:02:07.120Z,100.00
2023-05-22T23:07:11.517Z,100.00
2023-05-22T23:12:17.144Z,100.00
2023-05-22T23:17:22.131Z,100.00
2023-05-22T23:22:26.346Z,100.00
2023-05-22T23:27:31.914Z,100.00
2023-05-22T23:32:36.360Z,100.00
2023-05-22T23:37:40.725Z,100.00
2023-05-22T23:42:46.489Z,100.00
2023-05-22T23:47:50.697Z,100.00
2023-05-22T23:52:55.238Z,100.00
2023-05-22T23:58:00.855Z,100.00
